createdAt,value
2023-05-22T00:00:49.161Z,7.37
2023-05-22T00:03:24.632Z,7.50
2023-05-22T00:05:53.394Z,7.70
2023-05-22T00:08:21.346Z,7.20
2023-05-22T00:10:49.052Z,7.10
2023-05-22T00:13:16.965Z,6.90
2023-05-22T00:15:44.552Z,6.80
2023-05-22T00:18:14.008Z,6.87
2023-05-22T00:20:42.349Z,7.23
2023-05-22T00:23:11.114Z,7.27
2023-05-22T00:25:39.520Z,7.13
2023-05-22T00:28:07.519Z,7.03
2023-05-22T00:30:35.468Z,6.93
2023-05-22T00:33:03.937Z,7.47
2023-05-22T00:35:31.926Z,7.23
2023-05-22T00:37:59.469Z,7.23
2023-05-22T00:40:27.383Z,6.77
2023-05-22T00:42:55.563Z,8.27
2023-05-22T00:45:24.657Z,7.10
2023-05-22T00:47:53.966Z,7.70
2023-05-22T00:50:21.936Z,7.20
2023-05-22T00:52:49.783Z,7.53
2023-05-22T00:55:17.424Z,7.73
2023-05-22T00:57:46.086Z,7.53
2023-05-22T01:00:14.808Z,8.53
2023-05-22T01:02:43.405Z,8.10
2023-05-22T01:05:13.302Z,8.10
2023-05-22T01:07:41.119Z,7.80
2023-05-22T01:10:08.897Z,8.13
2023-05-22T01:13:01.278Z,7.60
2023-05-22T01:15:43.231Z,7.97
2023-05-22T01:18:26.378Z,8.47
2023-05-22T01:21:06.412Z,8.27
2023-05-22T01:24:06.622Z,8.37
2023-05-22T01:26:58.355Z,8.63
2023-05-22T01:29:31.208Z,8.37
2023-05-22T01:32:00.684Z,8.00
2023-05-22T01:34:29.901Z,7.60
2023-05-22T01:36:58.822Z,7.83
2023-05-22T01:39:28.723Z,8.47
2023-05-22T01:41:56.117Z,8.80
2023-05-22T01:44:23.813Z,8.77
2023-05-22T01:46:51.016Z,7.60
2023-05-22T01:49:18.613Z,7.53
2023-05-22T01:51:54.314Z,8.50
2023-05-22T01:54:50.340Z,8.13
2023-05-22T01:57:48.045Z,8.27
2023-05-22T02:00:16.744Z,8.17
2023-05-22T02:02:50.665Z,8.77
2023-05-22T02:05:21.595Z,8.43
2023-05-22T02:07:49.502Z,8.33
2023-05-22T02:10:20.531Z,9.90
2023-05-22T02:12:48.475Z,8.40
2023-05-22T02:15:17.126Z,9.00
2023-05-22T02:17:45.699Z,9.10
2023-05-22T02:20:15.575Z,9.10
2023-05-22T02:22:47.187Z,9.83
2023-05-22T02:25:17.260Z,9.13
2023-05-22T02:27:47.523Z,10.70
2023-05-22T02:30:15.674Z,9.43
2023-05-22T02:32:45.355Z,10.10
2023-05-22T02:35:13.254Z,10.33
2023-05-22T02:37:41.270Z,11.37
2023-05-22T02:40:10.229Z,10.37
2023-05-22T02:42:37.597Z,10.53
2023-05-22T02:45:06.418Z,10.63
2023-05-22T02:47:33.609Z,10.20
2023-05-22T02:50:01.128Z,10.40
2023-05-22T02:52:28.479Z,10.43
2023-05-22T02:54:55.946Z,9.87
2023-05-22T02:57:23.726Z,9.70
2023-05-22T02:59:52.737Z,8.57
2023-05-22T03:02:20.285Z,8.83
2023-05-22T03:04:49.092Z,9.50
2023-05-22T03:07:17.061Z,10.83
2023-05-22T03:09:44.713Z,10.43
2023-05-22T03:12:12.444Z,10.30
2023-05-22T03:14:40.000Z,9.67
2023-05-22T03:17:07.316Z,9.70
2023-05-22T03:19:34.894Z,9.30
2023-05-22T03:22:02.075Z,9.40
2023-05-22T03:24:30.615Z,9.60
2023-05-22T03:26:59.078Z,10.13
2023-05-22T03:29:38.419Z,10.47
2023-05-22T03:32:06.015Z,9.47
2023-05-22T03:34:33.584Z,9.30
2023-05-22T03:37:02.497Z,9.33
2023-05-22T03:39:29.920Z,8.87
2023-05-22T03:42:01.989Z,8.43
2023-05-22T03:44:30.204Z,8.30
2023-05-22T03:46:57.424Z,8.80
2023-05-22T03:49:25.057Z,9.13
2023-05-22T03:51:52.190Z,9.23
2023-05-22T03:54:19.631Z,10.40
2023-05-22T03:56:46.763Z,9.23
2023-05-22T03:59:14.201Z,8.63
2023-05-22T04:01:41.352Z,9.00
2023-05-22T04:04:09.749Z,8.17
2023-05-22T04:06:43.239Z,8.60
2023-05-22T04:09:13.602Z,8.20
2023-05-22T04:11:42.333Z,8.97
2023-05-22T04:14:10.341Z,8.70
2023-05-22T04:16:37.597Z,9.70
2023-05-22T04:19:05.948Z,9.53
2023-05-22T04:21:34.534Z,9.17
2023-05-22T04:24:07.283Z,9.67
2023-05-22T04:26:34.901Z,9.23
2023-05-22T04:29:03.854Z,10.57
2023-05-22T04:31:31.206Z,10.70
2023-05-22T04:34:00.263Z,10.97
2023-05-22T04:36:28.074Z,9.70
2023-05-22T04:38:55.883Z,9.70
2023-05-22T04:41:26.838Z,10.00
2023-05-22T04:43:54.879Z,9.60
2023-05-22T04:46:22.716Z,10.60
2023-05-22T04:48:51.107Z,9.73
2023-05-22T04:51:18.683Z,9.37
2023-05-22T04:53:46.437Z,9.70
2023-05-22T04:56:16.587Z,10.13
2023-05-22T04:58:53.975Z,10.15
2023-05-22T05:01:21.866Z,11.48
2023-05-22T05:03:49.708Z,10.52
2023-05-22T05:06:17.399Z,9.88
2023-05-22T05:08:46.814Z,9.98
2023-05-22T05:11:14.262Z,9.27
2023-05-22T05:13:43.039Z,10.35
2023-05-22T05:16:10.330Z,9.35
2023-05-22T05:18:38.199Z,11.32
2023-05-22T05:21:05.723Z,10.18
2023-05-22T05:23:33.153Z,8.85
2023-05-22T05:26:00.351Z,9.48
2023-05-22T05:28:29.018Z,8.68
2023-05-22T05:30:57.748Z,9.20
2023-05-22T05:33:49.162Z,8.80
2023-05-22T05:36:42.676Z,9.05
2023-05-22T05:39:10.903Z,7.57
2023-05-22T05:41:38.945Z,9.07
2023-05-22T05:44:10.260Z,9.65
2023-05-22T05:46:38.475Z,8.73
2023-05-22T05:49:10.322Z,8.90
2023-05-22T05:51:39.264Z,7.70
2023-05-22T05:54:07.633Z,7.03
2023-05-22T05:56:35.012Z,8.80
2023-05-22T05:59:04.459Z,8.90
2023-05-22T06:01:38.716Z,9.75
2023-05-22T06:04:11.575Z,8.88
2023-05-22T06:06:39.833Z,8.70
2023-05-22T06:09:10.482Z,8.57
2023-05-22T06:12:13.094Z,8.68
2023-05-22T06:14:44.410Z,8.48
2023-05-22T06:17:12.607Z,7.03
2023-05-22T06:19:42.732Z,6.88
2023-05-22T06:22:10.504Z,7.50
2023-05-22T06:24:41.004Z,8.27
2023-05-22T06:27:13.809Z,7.20
2023-05-22T06:29:41.644Z,6.93
2023-05-22T06:32:09.603Z,6.90
2023-05-22T06:34:41.938Z,6.65
2023-05-22T06:37:09.563Z,7.75
2023-05-22T06:39:42.141Z,7.32
2023-05-22T06:42:33.362Z,7.00
2023-05-22T06:45:21.189Z,6.50
2023-05-22T06:48:04.381Z,6.43
2023-05-22T06:50:36.080Z,5.75
2023-05-22T06:53:03.334Z,5.35
2023-05-22T06:55:33.195Z,6.00
2023-05-22T06:58:08.772Z,5.43
2023-05-22T07:00:36.796Z,5.35
2023-05-22T07:03:21.550Z,5.30
2023-05-22T07:06:18.457Z,5.00
2023-05-22T07:08:45.870Z,5.80
2023-05-22T07:11:13.338Z,4.25
2023-05-22T07:13:40.536Z,4.15
2023-05-22T07:16:08.255Z,4.22
2023-05-22T07:18:35.949Z,4.32
2023-05-22T07:21:03.379Z,3.90
2023-05-22T07:23:30.920Z,3.83
2023-05-22T07:25:58.576Z,3.80
2023-05-22T07:28:32.033Z,4.00
2023-05-22T07:31:09.266Z,3.38
2023-05-22T07:33:37.417Z,3.30
2023-05-22T07:36:05.510Z,3.13
2023-05-22T07:38:32.947Z,4.32
2023-05-22T07:41:04.919Z,2.92
2023-05-22T07:43:33.953Z,2.78
2023-05-22T07:46:01.781Z,3.70
2023-05-22T07:48:36.073Z,3.15
2023-05-22T07:51:03.995Z,2.90
2023-05-22T07:53:31.911Z,3.10
2023-05-22T07:56:02.408Z,2.90
2023-05-22T07:58:31.512Z,2.67
2023-05-22T08:01:01.606Z,2.75
2023-05-22T08:03:29.121Z,2.30
2023-05-22T08:05:57.041Z,2.42
2023-05-22T08:08:24.377Z,2.35
2023-05-22T08:11:02.877Z,2.30
2023-05-22T08:13:31.425Z,3.47
2023-05-22T08:16:00.325Z,2.30
2023-05-22T08:18:29.804Z,2.20
2023-05-22T08:20:57.890Z,2.53
2023-05-22T08:23:25.244Z,2.55
2023-05-22T08:25:52.795Z,2.97
2023-05-22T08:28:20.218Z,2.70
2023-05-22T08:30:47.767Z,2.47
2023-05-22T08:33:15.058Z,2.90
2023-05-22T08:35:42.675Z,3.08
2023-05-22T08:38:10.042Z,3.08
2023-05-22T08:40:39.454Z,3.15
2023-05-22T08:43:07.450Z,2.72
2023-05-22T08:45:35.193Z,2.70
2023-05-22T08:48:05.981Z,3.25
2023-05-22T08:50:37.510Z,2.97
2023-05-22T08:53:07.354Z,2.80
2023-05-22T08:55:35.168Z,2.67
2023-05-22T08:58:02.735Z,2.97
2023-05-22T09:00:30.996Z,2.72
2023-05-22T09:02:58.762Z,2.63
2023-05-22T09:05:26.799Z,3.20
2023-05-22T09:08:02.589Z,2.92
2023-05-22T09:10:33.197Z,2.33
2023-05-22T09:13:09.490Z,2.85
2023-05-22T09:15:38.025Z,2.10
2023-05-22T09:18:06.687Z,2.42
2023-05-22T09:20:39.250Z,2.63
2023-05-22T09:23:12.649Z,2.50
2023-05-22T09:25:43.132Z,3.17
2023-05-22T09:28:11.821Z,2.63
2023-05-22T09:30:40.244Z,3.03
2023-05-22T09:33:09.519Z,2.80
2023-05-22T09:35:39.614Z,3.15
2023-05-22T09:38:07.071Z,2.83
2023-05-22T09:40:38.272Z,2.63
2023-05-22T09:43:12.540Z,2.53
2023-05-22T09:45:40.232Z,3.00
2023-05-22T09:48:09.872Z,2.85
2023-05-22T09:50:38.190Z,2.55
2023-05-22T09:53:06.439Z,2.67
2023-05-22T09:55:34.521Z,2.55
2023-05-22T09:58:05.446Z,2.83
2023-05-22T10:00:35.492Z,2.80
2023-05-22T10:03:12.174Z,2.25
2023-05-22T10:05:47.100Z,2.65
2023-05-22T10:08:42.151Z,2.40
2023-05-22T10:11:11.444Z,4.03
2023-05-22T10:13:39.400Z,5.60
2023-05-22T10:16:07.960Z,2.70
2023-05-22T10:18:38.182Z,1.92
2023-05-22T10:21:06.392Z,2.30
2023-05-22T10:23:34.034Z,2.20
2023-05-22T10:26:02.156Z,2.10
2023-05-22T10:28:38.353Z,5.57
2023-05-22T10:31:19.038Z,1.80
2023-05-22T10:34:26.950Z,2.20
2023-05-22T10:37:17.098Z,2.35
2023-05-22T10:40:14.199Z,2.00
2023-05-22T10:42:42.257Z,2.63
2023-05-22T10:45:10.924Z,2.08
2023-05-22T10:47:38.666Z,2.38
2023-05-22T10:50:11.314Z,2.22
2023-05-22T10:52:40.184Z,2.05
2023-05-22T10:55:09.744Z,2.20
2023-05-22T10:57:40.810Z,2.15
2023-05-22T11:00:13.225Z,2.72
2023-05-22T11:02:45.227Z,2.17
2023-05-22T11:05:21.893Z,2.17
2023-05-22T11:07:49.961Z,2.50
2023-05-22T11:10:27.831Z,2.83
2023-05-22T11:13:13.948Z,1.67
2023-05-22T11:15:45.983Z,2.30
2023-05-22T11:18:14.743Z,3.20
2023-05-22T11:20:42.551Z,2.33
2023-05-22T11:23:11.726Z,2.50
2023-05-22T11:25:41.448Z,2.70
2023-05-22T11:28:10.872Z,3.35
2023-05-22T11:30:39.069Z,2.20
2023-05-22T11:33:06.917Z,2.15
2023-05-22T11:35:34.849Z,2.20
2023-05-22T11:38:06.295Z,1.95
2023-05-22T11:40:34.655Z,2.75
2023-05-22T11:43:04.128Z,2.42
2023-05-22T11:45:31.587Z,2.17
2023-05-22T11:48:00.507Z,2.60
2023-05-22T11:50:41.081Z,2.70
2023-05-22T11:53:09.970Z,1.90
2023-05-22T11:55:37.281Z,2.90
2023-05-22T11:58:04.835Z,2.25
2023-05-22T12:00:32.594Z,2.13
2023-05-22T12:03:00.409Z,2.00
2023-05-22T12:05:27.963Z,2.10
2023-05-22T12:07:55.679Z,1.95
2023-05-22T12:10:23.304Z,2.10
2023-05-22T12:12:50.925Z,2.92
2023-05-22T12:15:21.379Z,2.55
2023-05-22T12:17:49.458Z,1.95
2023-05-22T12:20:16.888Z,2.30
2023-05-22T12:22:44.574Z,1.85
2023-05-22T12:25:20.584Z,2.40
2023-05-22T12:27:48.621Z,2.20
2023-05-22T12:30:17.134Z,2.20
2023-05-22T12:32:49.898Z,2.10
2023-05-22T12:35:18.499Z,2.28
2023-05-22T12:37:50.614Z,2.50
2023-05-22T12:40:18.167Z,2.35
2023-05-22T12:42:45.948Z,1.95
2023-05-22T12:45:14.106Z,1.90
2023-05-22T12:47:41.984Z,2.63
2023-05-22T12:50:09.582Z,2.25
2023-05-22T12:52:37.128Z,2.00
2023-05-22T12:55:04.753Z,2.00
2023-05-22T12:57:32.563Z,2.08
2023-05-22T13:00:00.074Z,2.03
2023-05-22T13:02:27.849Z,2.03
2023-05-22T13:04:55.398Z,2.42
2023-05-22T13:07:23.193Z,2.33
2023-05-22T13:09:50.575Z,2.60
2023-05-22T13:12:19.410Z,2.30
2023-05-22T13:14:46.896Z,2.60
2023-05-22T13:17:14.432Z,2.15
2023-05-22T13:19:41.649Z,2.55
2023-05-22T13:22:09.254Z,2.10
2023-05-22T13:24:36.627Z,4.65
2023-05-22T13:27:04.418Z,2.88
2023-05-22T13:29:32.624Z,1.98
2023-05-22T13:32:01.450Z,1.85
2023-05-22T13:34:29.566Z,2.13
2023-05-22T13:36:57.337Z,2.58
2023-05-22T13:39:24.600Z,2.53
2023-05-22T13:41:53.462Z,2.85
2023-05-22T13:44:21.346Z,2.45
2023-05-22T13:46:49.218Z,2.00
2023-05-22T13:49:16.823Z,2.30
2023-05-22T13:51:44.373Z,1.98
2023-05-22T13:54:11.754Z,2.55
2023-05-22T13:56:39.377Z,2.03
2023-05-22T13:59:09.202Z,2.33
2023-05-22T14:01:37.292Z,2.28
2023-05-22T14:04:05.849Z,2.58
2023-05-22T14:06:34.046Z,2.60
2023-05-22T14:09:01.736Z,2.20
2023-05-22T14:11:30.250Z,2.80
2023-05-22T14:13:57.593Z,2.22
2023-05-22T14:16:25.211Z,2.58
2023-05-22T14:18:52.620Z,2.45
2023-05-22T14:21:20.486Z,2.35
2023-05-22T14:23:47.709Z,2.65
2023-05-22T14:26:15.284Z,2.08
2023-05-22T14:28:43.006Z,2.67
2023-05-22T14:31:10.615Z,2.70
2023-05-22T14:33:37.914Z,2.20
2023-05-22T14:36:06.412Z,2.33
2023-05-22T14:38:34.419Z,2.40
2023-05-22T14:41:02.367Z,2.63
2023-05-22T14:43:29.757Z,2.58
2023-05-22T14:45:58.237Z,3.20
2023-05-22T14:48:26.681Z,2.30
2023-05-22T14:50:54.422Z,2.15
2023-05-22T14:53:22.090Z,2.10
2023-05-22T14:55:49.797Z,2.30
2023-05-22T14:58:17.162Z,2.65
2023-05-22T15:00:46.196Z,3.03
2023-05-22T15:03:13.647Z,2.50
2023-05-22T15:05:41.600Z,2.15
2023-05-22T15:08:09.500Z,3.95
2023-05-22T15:10:37.056Z,2.58
2023-05-22T15:13:04.385Z,3.10
2023-05-22T15:15:31.937Z,2.10
2023-05-22T15:18:02.726Z,2.75
2023-05-22T15:20:31.227Z,2.10
2023-05-22T15:22:59.404Z,2.58
2023-05-22T15:25:27.297Z,3.08
2023-05-22T15:27:54.918Z,2.53
2023-05-22T15:30:23.631Z,2.75
2023-05-22T15:32:51.059Z,2.13
2023-05-22T15:35:18.618Z,2.55
2023-05-22T15:37:46.613Z,2.92
2023-05-22T15:40:17.485Z,2.22
2023-05-22T15:42:44.969Z,2.50
2023-05-22T15:45:12.723Z,2.20
2023-05-22T15:47:41.208Z,2.45
2023-05-22T15:50:09.530Z,2.55
2023-05-22T15:52:37.753Z,2.38
2023-05-22T15:55:06.002Z,2.65
2023-05-22T15:57:34.331Z,2.67
2023-05-22T16:00:02.294Z,2.83
2023-05-22T16:02:31.784Z,3.00
2023-05-22T16:04:59.741Z,2.78
2023-05-22T16:07:27.233Z,3.08
2023-05-22T16:09:54.761Z,3.05
2023-05-22T16:12:22.269Z,2.63
2023-05-22T16:14:49.967Z,2.47
2023-05-22T16:17:17.216Z,2.38
2023-05-22T16:19:44.997Z,2.67
2023-05-22T16:22:12.373Z,2.67
2023-05-22T16:24:41.225Z,3.05
2023-05-22T16:27:09.302Z,2.40
2023-05-22T16:29:37.150Z,2.70
2023-05-22T16:32:04.794Z,3.00
2023-05-22T16:34:33.968Z,2.88
2023-05-22T16:37:01.216Z,2.50
2023-05-22T16:39:28.843Z,3.20
2023-05-22T16:41:56.167Z,3.72
2023-05-22T16:44:23.956Z,3.78
2023-05-22T16:46:51.711Z,2.80
2023-05-22T16:49:19.383Z,3.15
2023-05-22T16:51:46.543Z,2.65
2023-05-22T16:54:14.243Z,2.80
2023-05-22T16:56:41.467Z,3.28
2023-05-22T16:59:09.010Z,6.00
2023-05-22T17:01:36.514Z,24.15
2023-05-22T17:04:04.288Z,14.77
2023-05-22T17:06:31.920Z,5.65
2023-05-22T17:08:59.674Z,22.02
2023-05-22T17:11:27.462Z,4.65
2023-05-22T17:13:55.242Z,5.07
2023-05-22T17:16:22.581Z,3.47
2023-05-22T17:18:51.378Z,2.90
2023-05-22T17:21:20.691Z,3.33
2023-05-22T17:23:48.418Z,3.17
2023-05-22T17:26:15.770Z,3.42
2023-05-22T17:28:43.384Z,3.10
2023-05-22T17:31:10.905Z,4.85
2023-05-22T17:33:38.693Z,3.33
2023-05-22T17:36:06.272Z,3.90
2023-05-22T17:38:33.836Z,3.65
2023-05-22T17:41:01.159Z,3.78
2023-05-22T17:43:29.398Z,3.58
2023-05-22T17:45:56.642Z,10.15
2023-05-22T17:48:27.291Z,4.97
2023-05-22T17:50:54.727Z,3.20
2023-05-22T17:53:22.288Z,3.53
2023-05-22T17:55:51.093Z,3.25
2023-05-22T17:58:20.683Z,3.55
2023-05-22T18:00:48.900Z,13.68
2023-05-22T18:03:20.483Z,5.05
2023-05-22T18:05:51.564Z,3.97
2023-05-22T18:08:21.373Z,4.15
2023-05-22T18:10:49.124Z,3.08
2023-05-22T18:13:19.330Z,3.13
2023-05-22T18:15:48.447Z,3.55
2023-05-22T18:18:16.708Z,3.67
2023-05-22T18:20:46.491Z,3.20
2023-05-22T18:23:14.221Z,3.22
2023-05-22T18:25:41.708Z,3.90
2023-05-22T18:28:10.026Z,3.58
2023-05-22T18:30:37.995Z,3.58
2023-05-22T18:33:05.717Z,3.20
2023-05-22T18:35:33.129Z,3.83
2023-05-22T18:38:00.756Z,3.63
2023-05-22T18:40:28.417Z,3.75
2023-05-22T18:42:55.953Z,3.03
2023-05-22T18:45:24.014Z,3.47
2023-05-22T18:47:51.751Z,3.70
2023-05-22T18:50:20.212Z,3.90
2023-05-22T18:52:50.275Z,4.13
2023-05-22T18:55:17.591Z,3.85
2023-05-22T18:57:46.071Z,4.20
2023-05-22T19:00:13.717Z,4.20
2023-05-22T19:02:41.458Z,4.28
2023-05-22T19:05:09.721Z,4.45
2023-05-22T19:07:38.423Z,4.38
2023-05-22T19:10:08.020Z,4.32
2023-05-22T19:12:36.164Z,4.57
2023-05-22T19:15:04.475Z,3.90
2023-05-22T19:17:33.220Z,3.97
2023-05-22T19:20:01.530Z,4.63
2023-05-22T19:22:29.565Z,4.47
2023-05-22T19:24:57.166Z,5.10
2023-05-22T19:27:26.675Z,5.47
2023-05-22T19:29:54.596Z,5.45
2023-05-22T19:32:22.387Z,7.80
2023-05-22T19:34:49.754Z,7.38
2023-05-22T19:37:17.822Z,10.07
2023-05-22T19:39:45.423Z,10.05
2023-05-22T19:42:12.986Z,12.05
2023-05-22T19:44:40.490Z,12.05
2023-05-22T19:47:08.482Z,12.80
2023-05-22T19:49:37.212Z,11.68
2023-05-22T19:52:06.821Z,11.02
2023-05-22T19:54:36.069Z,10.50
2023-05-22T19:57:04.457Z,10.05
2023-05-22T19:59:33.581Z,11.18
2023-05-22T20:02:02.894Z,9.48
2023-05-22T20:04:32.114Z,9.10
2023-05-22T20:07:00.122Z,7.70
2023-05-22T20:09:27.872Z,6.43
2023-05-22T20:11:55.856Z,6.78
2023-05-22T20:14:23.489Z,6.38
2023-05-22T20:16:51.800Z,6.90
2023-05-22T20:19:19.303Z,6.82
2023-05-22T20:21:49.733Z,7.03
2023-05-22T20:24:20.969Z,6.70
2023-05-22T20:26:48.914Z,6.10
2023-05-22T20:29:16.411Z,8.68
2023-05-22T20:31:44.331Z,7.63
2023-05-22T20:34:11.910Z,8.80
2023-05-22T20:36:41.072Z,9.60
2023-05-22T20:39:10.976Z,10.50
2023-05-22T20:41:38.739Z,8.27
2023-05-22T20:44:06.674Z,10.40
2023-05-22T20:46:35.056Z,11.88
2023-05-22T20:49:05.032Z,8.82
2023-05-22T20:51:32.883Z,8.63
2023-05-22T20:54:00.935Z,7.32
2023-05-22T20:56:30.179Z,9.10
2023-05-22T20:58:57.860Z,8.65
2023-05-22T21:01:26.144Z,6.88
2023-05-22T21:03:56.514Z,6.95
2023-05-22T21:06:24.580Z,7.63
2023-05-22T21:08:54.041Z,7.47
2023-05-22T21:11:22.826Z,7.90
2023-05-22T21:13:50.043Z,6.95
2023-05-22T21:16:17.667Z,8.18
2023-05-22T21:18:45.117Z,7.18
2023-05-22T21:21:16.112Z,6.72
2023-05-22T21:23:43.846Z,6.35
2023-05-22T21:26:11.662Z,6.35
2023-05-22T21:28:39.050Z,6.82
2023-05-22T21:31:07.174Z,6.78
2023-05-22T21:33:34.508Z,7.30
2023-05-22T21:36:02.194Z,7.10
2023-05-22T21:38:29.620Z,6.67
2023-05-22T21:40:57.216Z,7.30
2023-05-22T21:43:24.685Z,7.18
2023-05-22T21:45:52.353Z,7.80
2023-05-22T21:48:19.714Z,6.87
2023-05-22T21:50:47.537Z,7.37
2023-05-22T21:53:14.871Z,7.60
2023-05-22T21:55:42.435Z,6.17
2023-05-22T21:58:10.510Z,7.27
2023-05-22T22:00:38.708Z,6.77
2023-05-22T22:03:07.074Z,6.17
2023-05-22T22:05:36.383Z,7.10
2023-05-22T22:08:04.703Z,6.93
2023-05-22T22:10:32.202Z,6.47
2023-05-22T22:12:59.484Z,7.23
2023-05-22T22:15:27.036Z,7.57
2023-05-22T22:17:59.484Z,7.40
2023-05-22T22:20:39.962Z,8.37
2023-05-22T22:23:10.448Z,7.17
2023-05-22T22:25:39.478Z,6.53
2023-05-22T22:28:07.562Z,7.60
2023-05-22T22:30:35.630Z,7.67
2023-05-22T22:33:03.198Z,7.37
2023-05-22T22:35:30.859Z,8.47
2023-05-22T22:37:59.127Z,7.43
2023-05-22T22:40:27.104Z,8.17
2023-05-22T22:42:54.395Z,9.30
2023-05-22T22:45:21.976Z,8.93
2023-05-22T22:47:49.177Z,8.60
2023-05-22T22:50:16.898Z,8.10
2023-05-22T22:52:47.345Z,10.47
2023-05-22T22:55:15.082Z,10.30
2023-05-22T22:57:47.953Z,9.33
2023-05-22T23:00:16.691Z,8.77
2023-05-22T23:02:44.468Z,9.87
2023-05-22T23:05:12.507Z,9.00
2023-05-22T23:07:39.770Z,9.13
2023-05-22T23:10:08.148Z,9.10
2023-05-22T23:12:36.372Z,9.13
2023-05-22T23:15:04.609Z,8.77
2023-05-22T23:17:31.908Z,8.83
2023-05-22T23:19:59.343Z,9.00
2023-05-22T23:22:26.617Z,8.47
2023-05-22T23:24:54.098Z,8.77
2023-05-22T23:27:22.001Z,9.37
2023-05-22T23:29:49.480Z,8.63
2023-05-22T23:32:16.763Z,9.07
2023-05-22T23:34:44.487Z,8.70
2023-05-22T23:37:12.270Z,8.73
2023-05-22T23:39:40.127Z,8.37
2023-05-22T23:42:09.888Z,8.90
2023-05-22T23:44:37.793Z,7.97
2023-05-22T23:47:05.750Z,8.80
2023-05-22T23:49:33.221Z,8.90
2023-05-22T23:52:00.578Z,9.57
2023-05-22T23:54:28.066Z,9.13
2023-05-22T23:56:55.370Z,8.90
2023-05-22T23:59:22.867Z,8.97
